Time;durP1;ratioP1;P1;durP2;ratioP2;P2;SDS_P1;SDS_P2;PMS_P1;PMS_P2;Temp;Humidity;BMP_temperature;BMP_pressure;BME280_temperature;BME280_humidity;BME280_pressure;Samples;Min_cycle;Max_cycle;Signal;HPM_P1;HPM_P2
2023/10/21 00:02:04;;;;;;;33.72;24.05;;;11.20;99.90;;;;;;4918822;29;20380;-83
2023/10/21 00:04:30;;;;;;;45.65;26.65;;;11.20;99.90;;;;;;4906013;29;20044;-83
2023/10/21 00:06:55;;;;;;;36.92;24.52;;;11.10;99.90;;;;;;4908980;29;20096;-83
2023/10/21 00:09:21;;;;;;;35.28;23.10;;;11.00;99.90;;;;;;4883054;29;20040;-82
2023/10/21 00:11:46;;;;;;;95.88;33.20;;;11.00;99.90;;;;;;4908281;29;20407;-82
2023/10/21 00:14:12;;;;;;;85.35;29.50;;;11.00;99.90;;;;;;4896076;29;20071;-84
2023/10/21 00:16:38;;;;;;;53.47;27.02;;;10.90;99.90;;;;;;4883342;29;20035;-82
2023/10/21 00:19:04;;;;;;;83.57;30.13;;;10.90;99.90;;;;;;4908694;29;20246;-82
2023/10/21 00:21:30;;;;;;;29.42;23.33;;;10.80;99.90;;;;;;4914593;29;20427;-82
2023/10/21 00:23:55;;;;;;;44.42;25.70;;;10.80;99.90;;;;;;4910888;29;20039;-82
2023/10/21 00:26:22;;;;;;;65.25;29.67;;;10.80;99.90;;;;;;4908142;29;20474;-82
2023/10/21 00:28:47;;;;;;;63.25;28.92;;;10.80;99.90;;;;;;4908322;29;20618;-82
2023/10/21 00:31:13;;;;;;;41.30;24.38;;;10.80;99.90;;;;;;4914632;29;20119;-82
2023/10/21 00:33:39;;;;;;;43.72;25.23;;;10.70;99.90;;;;;;4880609;29;20040;-83
2023/10/21 00:36:04;;;;;;;42.17;25.73;;;10.70;99.90;;;;;;4906956;29;20410;-82
2023/10/21 00:38:30;;;;;;;41.58;25.67;;;10.70;99.90;;;;;;4908307;29;20055;-82
2023/10/21 00:40:56;;;;;;;37.75;23.30;;;10.60;99.90;;;;;;4915997;29;20403;-82
2023/10/21 00:43:38;;;;;;;72.72;29.23;;;10.60;99.90;;;;;;4908674;29;20074;-82
2023/10/21 00:46:13;;;;;;;50.05;27.13;;;10.60;99.90;;;;;;4907884;29;20058;-83
2023/10/21 00:48:39;;;;;;;40.58;25.08;;;10.60;99.90;;;;;;4915919;29;20123;-82
2023/10/21 00:51:05;;;;;;;30.73;22.08;;;10.70;99.90;;;;;;4931790;29;20048;-82
2023/10/21 00:53:31;;;;;;;46.92;24.30;;;10.70;99.90;;;;;;4910893;29;20040;-82
2023/10/21 00:55:58;;;;;;;43.00;23.60;;;10.60;99.90;;;;;;4910281;29;20414;-82
2023/10/21 00:58:27;;;;;;;36.50;23.00;;;10.60;99.90;;;;;;4902669;29;20054;-83
2023/10/21 01:00:55;;;;;;;52.25;26.08;;;10.60;99.90;;;;;;4915607;29;20051;-82
2023/10/21 01:03:22;;;;;;;42.95;25.38;;;10.60;99.90;;;;;;4911404;29;20040;-83
2023/10/21 01:05:48;;;;;;;43.90;23.08;;;10.60;99.90;;;;;;4909751;29;20131;-83
2023/10/21 01:08:14;;;;;;;50.75;25.33;;;10.50;99.90;;;;;;4910679;29;20134;-83
2023/10/21 01:10:40;;;;;;;55.72;25.48;;;10.50;99.90;;;;;;4904912;29;20131;-83
2023/10/21 01:13:06;;;;;;;65.28;25.50;;;10.40;99.90;;;;;;4904804;29;20028;-83
2023/10/21 01:15:31;;;;;;;34.00;21.95;;;10.40;99.90;;;;;;4892658;29;20115;-82
2023/10/21 01:17:57;;;;;;;26.83;19.77;;;10.30;99.90;;;;;;4905698;29;20040;-82
2023/10/21 01:20:23;;;;;;;36.60;23.23;;;10.40;99.90;;;;;;4898771;29;20127;-83
2023/10/21 01:22:48;;;;;;;39.20;23.23;;;10.40;99.90;;;;;;4906906;29;20039;-83
2023/10/21 01:25:14;;;;;;;38.58;24.25;;;10.40;99.90;;;;;;4890697;29;20043;-83
2023/10/21 01:27:39;;;;;;;59.17;27.85;;;10.40;99.90;;;;;;4910028;29;20517;-83
2023/10/21 01:30:06;;;;;;;68.78;29.10;;;10.30;99.90;;;;;;4918288;29;20127;-83
2023/10/21 01:32:32;;;;;;;84.97;31.77;;;10.30;99.90;;;;;;4918221;29;20048;-83
2023/10/21 01:34:58;;;;;;;63.97;29.85;;;10.30;99.90;;;;;;4898060;29;20032;-84
2023/10/21 01:37:23;;;;;;;54.88;29.10;;;10.20;99.90;;;;;;4907704;29;20415;-84
2023/10/21 01:39:49;;;;;;;78.97;32.63;;;10.20;99.90;;;;;;4918346;29;20522;-84
2023/10/21 01:42:14;;;;;;;62.13;32.72;;;10.10;99.90;;;;;;4918073;29;20043;-83
2023/10/21 01:44:40;;;;;;;45.15;32.70;;;10.10;99.90;;;;;;4903212;29;20461;-83
2023/10/21 01:47:06;;;;;;;135.77;48.67;;;10.10;99.90;;;;;;4904376;29;20119;-82
2023/10/21 01:49:32;;;;;;;90.55;43.40;;;10.10;99.90;;;;;;4906297;29;20152;-82
2023/10/21 01:51:58;;;;;;;54.53;34.58;;;10.10;99.90;;;;;;4908878;29;20036;-82
2023/10/21 01:54:23;;;;;;;87.90;46.60;;;10.10;99.90;;;;;;4910830;29;20035;-82
2023/10/21 01:56:49;;;;;;;48.55;39.13;;;10.10;99.90;;;;;;4910465;29;20035;-83
2023/10/21 01:59:15;;;;;;;113.32;55.00;;;10.10;99.90;;;;;;4918233;29;20083;-82
2023/10/21 02:01:41;;;;;;;71.07;46.40;;;10.10;99.90;;;;;;4906383;29;20032;-82
2023/10/21 02:04:06;;;;;;;103.07;54.95;;;10.20;99.90;;;;;;4906934;29;20065;-82
2023/10/21 02:06:32;;;;;;;138.10;63.90;;;10.20;99.90;;;;;;4904024;29;20040;-82
2023/10/21 02:08:57;;;;;;;92.85;52.60;;;10.20;99.90;;;;;;4900105;29;20460;-82
2023/10/21 02:11:26;;;;;;;114.18;59.75;;;10.20;99.90;;;;;;4911496;29;20126;-82
2023/10/21 02:13:52;;;;;;;71.10;48.45;;;10.20;99.90;;;;;;4911462;29;20039;-82
2023/10/21 02:16:19;;;;;;;161.43;69.57;;;10.20;99.90;;;;;;4902605;29;20036;-84
2023/10/21 02:18:44;;;;;;;134.05;62.65;;;10.20;99.90;;;;;;4899824;29;20047;-82
2023/10/21 02:21:10;;;;;;;94.35;56.75;;;10.20;99.90;;;;;;4909335;29;20035;-82
2023/10/21 02:23:36;;;;;;;79.13;52.88;;;10.10;99.90;;;;;;4899087;29;20056;-83
2023/10/21 02:26:06;;;;;;;80.75;56.38;;;10.20;99.90;;;;;;4905465;29;20042;-83
2023/10/21 02:28:32;;;;;;;179.95;78.00;;;10.20;99.90;;;;;;4909147;29;20095;-82
2023/10/21 02:31:03;;;;;;;175.68;80.85;;;10.30;99.90;;;;;;4914517;29;20039;-83
2023/10/21 02:33:28;;;;;;;157.02;74.28;;;10.30;99.90;;;;;;4908095;29;20071;-84
2023/10/21 02:35:55;;;;;;;87.85;58.45;;;10.30;99.90;;;;;;4913161;29;20074;-84
2023/10/21 02:38:22;;;;;;;154.68;74.55;;;10.30;99.90;;;;;;4921541;29;20553;-84
2023/10/21 02:40:48;;;;;;;179.68;79.80;;;10.20;99.90;;;;;;4908346;29;20043;-84
2023/10/21 02:43:14;;;;;;;100.70;61.15;;;10.30;99.90;;;;;;4925444;29;20040;-84
2023/10/21 02:45:39;;;;;;;96.28;58.25;;;10.20;99.90;;;;;;4896441;29;20039;-84
2023/10/21 03:45:04;;;;;;;150.77;68.50;;;10.00;99.90;;;;;;5917895;23;20119;-83
2023/10/21 03:47:30;;;;;;;217.88;78.85;;;10.00;99.90;;;;;;4962474;28;20047;-82
2023/10/21 03:49:56;;;;;;;151.30;69.50;;;10.00;99.90;;;;;;4938668;29;20050;-83
2023/10/21 03:52:22;;;;;;;193.50;81.18;;;9.90;99.90;;;;;;4947601;28;20331;-82
2023/10/21 03:54:47;;;;;;;118.32;65.80;;;9.90;99.90;;;;;;4950366;29;20032;-83
2023/10/21 03:57:13;;;;;;;196.00;79.70;;;9.90;99.90;;;;;;4938205;29;20099;-82
2023/10/21 07:37:55;;;;;;;;;;;;;;;;;;;;;
2023/10/21 07:41:37;;;;;;;;;;;;;;;;;;;;;
2023/10/21 08:21:34;;;;;;;;;;;;;;;;;;;;;
2023/10/21 08:28:10;;;;;;;47.72;33.97;;;12.40;99.90;;;;;;4755249;30;20060;-79
2023/10/21 08:51:31;;;;;;;;;;;;;;;;;;;;;
2023/10/21 08:54:26;;;;;;;28.60;23.45;;;13.50;99.90;;;;;;4885969;28;20438;-78
2023/10/21 08:57:03;;;;;;;20.88;17.88;;;13.60;99.90;;;;;;4939613;29;20568;-79
2023/10/21 09:00:01;;;;;;;17.88;15.32;;;13.60;99.90;;;;;;4943087;28;20058;-80
2023/10/21 09:02:35;;;;;;;20.25;17.40;;;13.60;99.90;;;;;;4940500;23;20055;-84
2023/10/21 09:05:11;;;;;;;31.00;19.95;;;13.50;99.90;;;;;;4934002;29;20094;-85
2023/10/21 09:07:45;;;;;;;14.23;12.70;;;13.60;99.90;;;;;;4927131;29;20186;-83
2023/10/21 09:10:11;;;;;;;14.73;13.18;;;13.60;99.90;;;;;;4923858;29;20386;-86
2023/10/21 09:12:38;;;;;;;15.75;13.77;;;13.50;99.90;;;;;;4923239;29;20047;-86
2023/10/21 09:15:05;;;;;;;14.65;12.13;;;13.40;99.90;;;;;;4904794;29;20094;-83
2023/10/21 09:17:35;;;;;;;13.25;11.88;;;13.40;99.90;;;;;;4922378;29;20510;-81
2023/10/21 09:20:07;;;;;;;13.55;12.15;;;13.40;99.90;;;;;;4917062;29;20534;-81
2023/10/21 09:22:34;;;;;;;13.68;12.07;;;13.30;99.90;;;;;;4913575;29;20051;-79
2023/10/21 09:25:15;;;;;;;20.08;15.30;;;13.30;99.90;;;;;;4938300;29;20094;-80
2023/10/21 09:27:45;;;;;;;14.23;12.80;;;13.40;99.90;;;;;;4913145;29;20054;-80
2023/10/21 09:30:19;;;;;;;16.35;12.63;;;13.30;99.90;;;;;;4919608;29;20056;-80
2023/10/21 09:32:46;;;;;;;16.10;12.48;;;13.30;99.90;;;;;;4916172;29;20043;-81
2023/10/21 09:35:23;;;;;;;25.33;16.20;;;13.30;99.90;;;;;;4908767;29;20063;-81
2023/10/21 09:37:49;;;;;;;11.63;10.43;;;13.30;99.90;;;;;;4904028;29;20087;-81
2023/10/21 09:40:15;;;;;;;29.45;17.15;;;13.30;99.90;;;;;;4918497;29;20442;-81
2023/10/21 09:42:41;;;;;;;19.67;13.63;;;13.30;99.90;;;;;;4933694;29;20534;-80
2023/10/21 09:45:09;;;;;;;15.25;12.57;;;13.30;99.90;;;;;;4916855;29;20036;-81
2023/10/21 09:47:39;;;;;;;16.65;12.60;;;13.30;99.90;;;;;;4899880;29;20040;-82
2023/10/21 09:50:09;;;;;;;24.77;17.00;;;13.40;99.90;;;;;;4910590;29;20399;-82
2023/10/21 09:53:09;;;;;;;14.68;13.00;;;13.50;99.90;;;;;;4915406;29;20091;-81
2023/10/21 09:55:36;;;;;;;29.08;18.48;;;13.60;99.90;;;;;;4932502;29;20108;-82
2023/10/21 09:58:04;;;;;;;13.75;11.35;;;13.70;99.90;;;;;;4927687;29;20403;-81
2023/10/21 10:00:30;;;;;;;10.82;9.48;;;13.70;99.90;;;;;;4913610;29;20044;-82
2023/10/21 10:02:56;;;;;;;21.05;12.20;;;13.60;99.90;;;;;;4928875;29;20545;-83
2023/10/21 10:05:22;;;;;;;11.13;7.43;;;13.60;99.90;;;;;;4930156;29;20040;-82
2023/10/21 10:07:49;;;;;;;6.00;4.85;;;13.60;99.90;;;;;;4919288;29;20119;-82
2023/10/21 10:10:22;;;;;;;11.32;3.63;;;13.60;99.90;;;;;;4927115;29;20039;-82
2023/10/21 10:13:09;;;;;;;6.85;3.55;;;13.70;99.90;;;;;;4920744;29;20044;-83
2023/10/21 10:15:40;;;;;;;4.95;2.65;;;13.70;99.90;;;;;;4917252;29;20043;-82
2023/10/21 10:18:19;;;;;;;9.20;4.85;;;13.70;99.90;;;;;;4917330;29;20403;-82
2023/10/21 10:20:50;;;;;;;6.10;3.75;;;14.00;99.90;;;;;;4918853;29;20039;-83
2023/10/21 10:23:17;;;;;;;5.18;2.50;;;14.00;99.90;;;;;;4923544;29;20044;-82
2023/10/21 10:25:54;;;;;;;5.53;3.30;;;13.90;99.90;;;;;;4898245;29;20197;-83
2023/10/21 10:28:26;;;;;;;4.65;2.70;;;13.80;99.90;;;;;;4913843;29;20048;-82
2023/10/21 10:30:54;;;;;;;4.90;2.05;;;13.80;99.90;;;;;;4914474;29;20036;-83
2023/10/21 10:33:31;;;;;;;4.50;2.70;;;13.80;99.90;;;;;;4916328;29;20046;-83
2023/10/21 10:35:58;;;;;;;3.83;2.25;;;13.90;99.90;;;;;;4912497;29;20067;-82
2023/10/21 10:38:31;;;;;;;4.90;2.30;;;14.00;99.90;;;;;;4912901;29;20043;-83
2023/10/21 10:41:10;;;;;;;4.28;1.98;;;14.00;99.90;;;;;;4924372;29;20043;-84
2023/10/21 10:43:41;;;;;;;2.63;1.88;;;13.90;99.90;;;;;;4931833;29;20490;-84
2023/10/21 10:46:06;;;;;;;4.43;2.17;;;14.10;99.90;;;;;;4912481;29;20043;-84
2023/10/21 10:48:34;;;;;;;2.30;1.63;;;14.70;99.90;;;;;;4917518;29;20051;-83
2023/10/21 10:51:06;;;;;;;3.75;1.52;;;14.80;99.90;;;;;;4920563;29;20087;-83
2023/10/21 10:53:34;;;;;;;3.83;1.20;;;14.60;99.90;;;;;;4925006;29;20040;-83
2023/10/21 10:55:59;;;;;;;2.95;1.33;;;14.50;99.90;;;;;;4904142;29;20079;-82
2023/10/21 10:58:28;;;;;;;4.07;1.92;;;14.30;99.90;;;;;;4932263;29;20557;-80
2023/10/21 11:00:54;;;;;;;4.18;1.02;;;14.30;99.90;;;;;;4935064;29;20038;-81
2023/10/21 11:03:32;;;;;;;3.75;1.27;;;14.40;99.90;;;;;;4923545;29;20048;-81
2023/10/21 11:05:59;;;;;;;3.33;0.93;;;14.20;99.90;;;;;;4942198;29;20491;-83
2023/10/21 11:08:28;;;;;;;2.92;1.02;;;14.10;99.90;;;;;;4902066;29;20044;-84
2023/10/21 11:11:04;;;;;;;3.75;0.80;;;14.00;99.90;;;;;;4923906;29;20506;-86
2023/10/21 11:13:30;;;;;;;3.20;1.02;;;13.90;99.90;;;;;;4927194;29;20039;-83
2023/10/21 11:15:57;;;;;;;3.83;1.00;;;13.70;99.90;;;;;;4935700;29;20126;-84
2023/10/21 11:18:26;;;;;;;3.28;1.13;;;13.70;99.90;;;;;;4917608;29;20040;-83
2023/10/21 11:20:52;;;;;;;2.53;0.95;;;13.60;99.90;;;;;;4907352;29;20048;-83
2023/10/21 11:23:19;;;;;;;2.95;1.30;;;13.50;99.90;;;;;;4924302;29;20171;-84
2023/10/21 11:25:54;;;;;;;2.67;1.00;;;13.50;99.90;;;;;;4901583;29;20048;-84
2023/10/21 11:28:20;;;;;;;4.40;1.77;;;13.60;99.90;;;;;;4901991;29;20046;-84
2023/10/21 11:30:49;;;;;;;3.80;1.20;;;13.70;99.90;;;;;;4907974;29;20435;-84
2023/10/21 11:33:16;;;;;;;3.10;1.20;;;13.70;99.90;;;;;;4927294;29;20051;-82
2023/10/21 11:35:44;;;;;;;2.97;1.40;;;13.80;99.90;;;;;;4921792;29;20083;-83
2023/10/21 11:38:18;;;;;;;3.67;0.82;;;13.90;99.90;;;;;;4921963;29;20388;-83
2023/10/21 11:40:44;;;;;;;4.70;1.33;;;14.10;99.90;;;;;;4899734;29;20097;-86
2023/10/21 11:43:13;;;;;;;2.63;1.02;;;14.00;99.90;;;;;;4917618;29;20558;-84
2023/10/21 11:45:39;;;;;;;3.03;1.10;;;14.00;99.90;;;;;;4930044;29;20494;-83
2023/10/21 11:48:11;;;;;;;4.03;1.38;;;14.10;99.90;;;;;;4916537;29;20055;-86
2023/10/21 11:50:42;;;;;;;3.60;1.00;;;14.20;99.90;;;;;;4925798;29;20096;-84
2023/10/21 11:53:08;;;;;;;4.22;1.30;;;14.50;99.90;;;;;;4922620;29;20036;-83
2023/10/21 11:58:28;;;;;;;2.53;1.00;;;14.80;99.90;;;;;;4930217;29;20391;-84
2023/10/21 12:07:20;;;;;;;5.15;1.10;;;17.20;99.90;;;;;;4935471;29;20044;-84
2023/10/21 12:10:18;;;;;;;3.88;1.00;;;18.10;99.90;;;;;;4927215;29;20079;-83
2023/10/21 12:12:18;;;;;;;2.20;0.80;;;17.70;99.90;;;;;;4904307;29;20184;-84
2023/10/21 12:20:29;;;;;;;3.47;1.00;;;17.00;99.90;;;;;;4921861;29;20051;-82
2023/10/21 12:23:32;;;;;;;4.68;1.10;;;16.60;99.90;;;;;;4915653;29;20511;-82
2023/10/21 12:29:11;;;;;;;3.33;1.23;;;17.00;99.90;;;;;;4914842;29;20055;-81
2023/10/21 12:34:20;;;;;;;3.42;1.13;;;17.10;99.90;;;;;;4908029;29;20407;-81
2023/10/21 12:39:37;;;;;;;4.72;1.30;;;16.10;99.90;;;;;;4919363;29;20052;-85
2023/10/21 12:42:25;;;;;;;6.18;1.25;;;15.70;99.90;;;;;;4935352;29;20122;-85
2023/10/21 12:44:55;;;;;;;3.65;1.20;;;15.40;99.90;;;;;;4923211;29;20078;-84
2023/10/21 12:47:22;;;;;;;5.13;1.30;;;15.30;99.90;;;;;;4915625;29;20490;-83
2023/10/21 12:49:50;;;;;;;5.93;1.30;;;15.10;99.90;;;;;;4914988;29;20043;-86
2023/10/21 12:52:18;;;;;;;5.97;1.20;;;15.00;99.90;;;;;;4921637;29;20052;-85
2023/10/21 12:54:44;;;;;;;3.70;1.08;;;15.00;99.90;;;;;;4894574;29;20047;-86
2023/10/21 12:57:11;;;;;;;3.60;0.90;;;15.40;99.90;;;;;;4915923;29;20036;-85
2023/10/21 12:59:37;;;;;;;2.88;1.10;;;15.90;99.90;;;;;;4900426;29;20044;-84
2023/10/21 13:02:07;;;;;;;4.50;1.17;;;16.00;99.90;;;;;;4900103;29;20406;-84
2023/10/21 13:04:37;;;;;;;3.58;1.30;;;15.80;99.90;;;;;;4900187;29;20133;-85
2023/10/21 13:07:04;;;;;;;3.65;0.98;;;15.70;99.90;;;;;;4915885;29;20051;-84
2023/10/21 13:09:33;;;;;;;3.75;1.13;;;15.80;99.90;;;;;;4915681;29;20040;-85
2023/10/21 13:12:00;;;;;;;4.32;1.17;;;15.70;99.90;;;;;;4914093;29;20028;-84
2023/10/21 13:14:28;;;;;;;6.25;1.40;;;15.70;99.90;;;;;;4912795;29;20048;-85
2023/10/21 13:16:54;;;;;;;4.43;1.17;;;15.60;99.90;;;;;;4915026;29;20505;-85
2023/10/21 13:19:21;;;;;;;4.13;1.10;;;15.90;99.90;;;;;;4915077;29;20127;-85
2023/10/21 13:21:47;;;;;;;3.50;1.42;;;16.40;99.90;;;;;;4914354;29;20083;-85
2023/10/21 13:24:13;;;;;;;4.78;1.02;;;16.80;99.90;;;;;;4914403;29;20562;-83
2023/10/21 13:26:39;;;;;;;4.07;1.00;;;17.30;99.90;;;;;;4914364;29;20118;-85
2023/10/21 13:29:05;;;;;;;3.33;0.93;;;17.90;99.90;;;;;;4914932;29;20048;-86
2023/10/21 13:31:31;;;;;;;4.35;1.30;;;18.60;99.90;;;;;;4912427;29;20040;-86
2023/10/21 13:33:56;;;;;;;4.65;0.98;;;19.10;99.90;;;;;;4918217;29;20032;-85
2023/10/21 13:36:23;;;;;;;3.92;1.17;;;18.80;99.90;;;;;;4899764;29;20091;-86
2023/10/21 13:38:49;;;;;;;5.50;1.27;;;18.20;99.90;;;;;;4917620;29;20041;-84
2023/10/21 13:41:15;;;;;;;5.38;1.00;;;17.60;99.90;;;;;;4898168;29;20417;-85
2023/10/21 13:43:40;;;;;;;4.20;1.25;;;17.10;99.90;;;;;;4905623;29;20098;-84
2023/10/21 13:46:06;;;;;;;4.00;0.98;;;16.60;99.90;;;;;;4896902;29;20043;-84
2023/10/21 13:48:33;;;;;;;4.00;1.10;;;16.40;99.90;;;;;;4898200;29;20127;-85
2023/10/21 13:51:06;;;;;;;4.90;1.13;;;16.20;99.90;;;;;;4912649;29;20063;-83
2023/10/21 13:53:32;;;;;;;;;;;16.00;99.90;;;;;;4911758;29;20041;-82
2023/10/21 13:55:58;;;;;;;4.97;1.20;;;15.80;99.90;;;;;;4918236;29;19926;-83
2023/10/21 13:58:25;;;;;;;4.75;1.33;;;15.50;99.90;;;;;;4917425;29;20039;-82
2023/10/21 14:00:51;;;;;;;4.72;1.20;;;15.40;99.90;;;;;;4913946;29;20044;-83
2023/10/21 14:03:28;;;;;;;3.67;1.10;;;15.50;99.90;;;;;;4906023;29;20079;-82
2023/10/21 14:06:04;;;;;;;4.43;1.38;;;15.70;99.90;;;;;;4915224;29;20581;-83
2023/10/21 14:08:30;;;;;;;4.28;1.00;;;15.60;99.90;;;;;;4931666;29;20047;-82
2023/10/21 14:11:00;;;;;;;4.35;1.10;;;15.60;99.90;;;;;;4931665;29;20563;-83
2023/10/21 14:13:29;;;;;;;4.47;1.05;;;15.40;99.90;;;;;;4901451;29;20126;-83
2023/10/21 14:15:58;;;;;;;5.80;1.30;;;15.30;99.90;;;;;;4927945;29;20032;-81
2023/10/21 14:18:25;;;;;;;6.05;1.20;;;15.00;99.90;;;;;;4930263;29;20043;-82
2023/10/21 14:20:52;;;;;;;5.00;1.52;;;14.80;99.90;;;;;;4898817;29;20048;-83
2023/10/21 14:23:19;;;;;;;5.50;1.40;;;14.70;99.90;;;;;;4914200;29;20099;-82
2023/10/21 14:25:47;;;;;;;5.80;1.40;;;14.60;99.90;;;;;;4911844;29;20105;-83
2023/10/21 14:28:14;;;;;;;4.55;1.38;;;14.50;99.90;;;;;;4920821;29;20515;-82
2023/10/21 14:31:06;;;;;;;3.45;1.20;;;14.40;99.90;;;;;;4920400;29;20439;-82
2023/10/21 14:33:35;;;;;;;6.30;1.40;;;14.30;99.90;;;;;;4904483;29;20134;-82
2023/10/21 14:36:11;;;;;;;7.22;1.65;;;14.20;99.90;;;;;;4903765;29;20043;-82
2023/10/21 14:38:36;;;;;;;5.57;1.45;;;14.10;99.90;;;;;;4922902;29;20040;-83
2023/10/21 14:41:02;;;;;;;6.75;1.70;;;14.20;99.90;;;;;;4930178;29;20056;-82
2023/10/21 14:43:28;;;;;;;5.50;1.73;;;14.10;99.90;;;;;;4914158;29;20510;-83
2023/10/21 14:45:53;;;;;;;5.15;1.58;;;14.00;99.90;;;;;;4922664;29;20442;-81
2023/10/21 14:48:19;;;;;;;4.25;1.50;;;14.00;99.90;;;;;;4922614;29;20052;-83
2023/10/21 14:50:50;;;;;;;7.75;1.63;;;14.00;99.90;;;;;;4929770;29;20036;-84
2023/10/21 14:53:15;;;;;;;5.38;1.60;;;14.00;99.90;;;;;;4898433;29;20491;-81
2023/10/21 14:55:44;;;;;;;7.43;1.95;;;14.10;99.90;;;;;;4919926;29;20127;-84
2023/10/21 14:58:13;;;;;;;6.30;1.77;;;14.00;99.90;;;;;;4925683;29;20084;-83
2023/10/21 15:00:44;;;;;;;4.35;1.42;;;14.00;99.90;;;;;;4932686;29;20043;-83
2023/10/21 15:03:16;;;;;;;7.38;1.75;;;14.00;99.90;;;;;;4902645;29;20036;-83
2023/10/21 15:05:44;;;;;;;6.10;1.65;;;13.80;99.90;;;;;;4915731;29;20407;-85
2023/10/21 15:08:09;;;;;;;5.63;1.63;;;13.70;99.90;;;;;;4898948;29;20040;-86
2023/10/21 15:10:35;;;;;;;5.72;1.50;;;13.60;99.90;;;;;;4900904;29;20032;-84
2023/10/21 15:13:01;;;;;;;5.82;1.63;;;13.50;99.90;;;;;;4911860;29;20497;-83
2023/10/21 15:15:26;;;;;;;8.48;1.95;;;13.40;99.90;;;;;;4922334;29;20044;-82
2023/10/21 15:17:52;;;;;;;7.57;1.70;;;13.40;99.90;;;;;;4933227;29;20067;-83
2023/10/21 15:20:18;;;;;;;6.50;1.60;;;13.40;99.90;;;;;;4917024;29;20047;-82
2023/10/21 15:22:45;;;;;;;5.13;1.60;;;13.30;99.90;;;;;;4913261;29;20111;-82
2023/10/21 15:25:14;;;;;;;7.93;1.73;;;13.20;99.90;;;;;;4895335;29;20123;-82
2023/10/21 15:27:45;;;;;;;6.70;1.77;;;13.10;99.90;;;;;;4928693;29;20036;-82
2023/10/21 15:30:13;;;;;;;7.38;1.90;;;13.00;99.90;;;;;;4898619;29;20040;-83
2023/10/21 15:32:39;;;;;;;6.80;2.33;;;12.90;99.90;;;;;;4900257;29;20051;-83
2023/10/21 15:35:05;;;;;;;8.10;1.98;;;12.90;99.90;;;;;;4899124;29;20040;-83
2023/10/21 15:37:31;;;;;;;8.23;1.92;;;12.90;99.90;;;;;;4939977;29;20040;-82
2023/10/21 15:39:57;;;;;;;7.53;2.08;;;12.90;99.90;;;;;;4913247;29;20072;-82
2023/10/21 15:42:23;;;;;;;8.90;2.17;;;12.90;99.90;;;;;;4901595;29;20047;-82
2023/10/21 15:44:48;;;;;;;6.40;1.90;;;12.90;99.90;;;;;;4921166;29;20050;-83
2023/10/21 15:47:14;;;;;;;6.93;1.70;;;12.90;99.90;;;;;;4921098;29;20098;-82
2023/10/21 15:49:40;;;;;;;8.13;1.90;;;12.90;99.90;;;;;;4902384;29;20051;-83
2023/10/21 15:52:05;;;;;;;6.18;2.15;;;12.90;99.90;;;;;;4922712;29;20028;-83
2023/10/21 15:54:31;;;;;;;9.18;2.10;;;12.90;99.90;;;;;;4902948;29;20032;-82
2023/10/21 15:56:57;;;;;;;6.78;2.13;;;12.90;99.90;;;;;;4908875;29;20040;-83
2023/10/21 15:59:23;;;;;;;5.63;1.65;;;12.90;99.90;;;;;;4900759;29;20052;-82
2023/10/21 16:01:48;;;;;;;8.43;2.25;;;12.90;99.90;;;;;;4903263;29;20118;-85
2023/10/21 16:04:14;;;;;;;7.50;1.98;;;12.90;99.90;;;;;;4916634;29;20619;-83
2023/10/21 16:06:40;;;;;;;6.03;2.05;;;12.90;99.90;;;;;;4917967;29;20035;-83
2023/10/21 16:09:07;;;;;;;6.45;2.03;;;12.90;99.90;;;;;;4905746;29;20965;-83
2023/10/21 16:11:33;;;;;;;8.32;2.40;;;12.80;99.90;;;;;;4925179;29;20517;-84
2023/10/21 16:13:59;;;;;;;7.88;2.00;;;12.80;99.90;;;;;;4915563;29;20458;-82
2023/10/21 16:16:26;;;;;;;6.45;1.80;;;12.80;99.90;;;;;;4922423;29;20040;-83
2023/10/21 16:18:52;;;;;;;8.52;2.08;;;12.80;99.90;;;;;;4915481;29;20131;-83
2023/10/21 16:21:17;;;;;;;10.55;2.30;;;12.80;99.90;;;;;;4899785;29;20083;-83
2023/10/21 16:23:43;;;;;;;7.95;2.80;;;12.80;99.90;;;;;;4902004;29;20478;-83
2023/10/21 16:26:09;;;;;;;9.80;2.95;;;12.80;99.90;;;;;;4911293;29;20126;-82
2023/10/21 16:28:34;;;;;;;9.60;2.47;;;12.80;99.90;;;;;;4926245;29;20048;-82
2023/10/21 16:31:03;;;;;;;7.82;2.15;;;12.80;99.90;;;;;;4921359;29;20501;-81
2023/10/21 16:33:29;;;;;;;8.32;2.42;;;12.80;99.90;;;;;;4905558;29;20040;-82
2023/10/21 16:35:55;;;;;;;8.27;1.95;;;12.70;99.90;;;;;;4902009;29;20036;-82
2023/10/21 16:38:21;;;;;;;9.55;2.30;;;12.70;99.90;;;;;;4919536;29;20550;-82
2023/10/21 16:40:47;;;;;;;6.95;2.00;;;12.70;99.90;;;;;;4908421;29;20257;-82
2023/10/21 16:43:13;;;;;;;7.32;1.95;;;12.70;99.90;;;;;;4917040;29;20036;-81
2023/10/21 16:45:38;;;;;;;9.75;2.72;;;12.70;99.90;;;;;;4920551;29;20106;-82
2023/10/21 16:48:04;;;;;;;8.50;2.40;;;12.70;99.90;;;;;;4922331;29;20047;-83
2023/10/21 16:50:30;;;;;;;7.45;2.10;;;12.70;99.90;;;;;;4897207;29;20040;-81
2023/10/21 16:52:57;;;;;;;7.72;2.42;;;12.60;99.90;;;;;;4926299;29;20035;-82
2023/10/21 16:55:23;;;;;;;7.97;2.20;;;12.60;99.90;;;;;;4894453;29;20096;-81
2023/10/21 16:57:48;;;;;;;6.80;2.20;;;12.60;99.90;;;;;;4908371;29;20036;-81
2023/10/21 17:00:14;;;;;;;7.82;2.20;;;12.60;99.90;;;;;;4910195;29;20509;-81
2023/10/21 17:02:42;;;;;;;7.80;2.15;;;12.60;99.90;;;;;;4902499;29;20454;-81
2023/10/21 17:05:08;;;;;;;8.95;2.60;;;12.60;99.90;;;;;;4907404;29;20039;-81
2023/10/21 17:07:33;;;;;;;10.70;2.40;;;12.60;99.90;;;;;;4898409;29;20079;-81
2023/10/21 17:09:59;;;;;;;9.32;2.45;;;12.50;99.90;;;;;;4920821;29;20517;-81
2023/10/21 17:12:24;;;;;;;8.80;2.90;;;12.50;99.90;;;;;;4899181;29;20408;-82
2023/10/21 17:14:51;;;;;;;8.98;2.97;;;12.40;99.90;;;;;;4917437;29;20036;-83
2023/10/21 17:17:17;;;;;;;8.93;2.90;;;12.40;99.90;;;;;;4911287;29;20506;-83
2023/10/21 17:19:42;;;;;;;9.02;2.20;;;12.30;99.90;;;;;;4914203;29;20126;-83
2023/10/21 17:22:08;;;;;;;9.02;2.70;;;12.20;99.90;;;;;;4918700;29;20079;-83
2023/10/21 17:24:33;;;;;;;9.50;2.58;;;12.10;99.90;;;;;;4903190;29;20067;-82
2023/10/21 17:26:59;;;;;;;10.80;3.65;;;12.10;99.90;;;;;;4929842;29;20048;-83
2023/10/21 17:29:24;;;;;;;9.85;2.88;;;12.00;99.90;;;;;;4918455;29;20047;-83
2023/10/21 17:31:50;;;;;;;8.93;2.90;;;12.00;99.90;;;;;;4924617;29;20032;-82
2023/10/21 17:34:16;;;;;;;12.07;2.83;;;11.90;99.90;;;;;;4927486;29;20388;-83
2023/10/21 17:36:41;;;;;;;11.85;3.17;;;11.90;99.90;;;;;;4921843;29;20051;-81
2023/10/21 17:39:09;;;;;;;10.30;3.20;;;11.90;99.90;;;;;;4906011;29;20094;-82
2023/10/21 17:41:37;;;;;;;9.50;2.65;;;11.90;99.90;;;;;;4902132;29;20126;-84
2023/10/21 17:44:03;;;;;;;9.52;2.83;;;11.90;99.90;;;;;;4895994;29;20043;-84
2023/10/21 17:46:29;;;;;;;12.38;3.10;;;11.90;99.90;;;;;;4911875;29;20044;-81
2023/10/21 17:48:54;;;;;;;10.52;2.90;;;11.90;99.90;;;;;;4905266;29;20058;-82
2023/10/21 17:51:20;;;;;;;10.82;3.22;;;11.80;99.90;;;;;;4906789;29;20502;-83
2023/10/21 17:53:49;;;;;;;12.00;3.08;;;11.90;99.90;;;;;;4932147;29;20533;-82
2023/10/21 17:56:15;;;;;;;9.25;2.53;;;11.90;99.90;;;;;;4914351;29;20044;-83
2023/10/21 17:58:40;;;;;;;11.73;3.40;;;11.90;99.90;;;;;;4921827;29;20048;-87
2023/10/21 18:01:06;;;;;;;14.05;3.60;;;11.80;99.90;;;;;;4919813;29;20550;-83
2023/10/21 18:03:33;;;;;;;15.98;3.65;;;11.80;99.90;;;;;;4921992;29;20047;-84
2023/10/21 18:05:58;;;;;;;10.95;3.03;;;11.80;99.90;;;;;;4917873;29;20504;-83
2023/10/21 18:08:24;;;;;;;10.77;2.97;;;11.80;99.90;;;;;;4913962;29;20105;-85
2023/10/21 18:10:50;;;;;;;10.60;2.75;;;11.80;99.90;;;;;;4895545;29;20110;-84
2023/10/21 18:13:16;;;;;;;10.93;2.72;;;11.80;99.90;;;;;;4913208;29;20190;-84
2023/10/21 18:15:42;;;;;;;13.45;2.90;;;11.70;99.90;;;;;;4913724;29;20056;-82
2023/10/21 18:18:08;;;;;;;12.35;2.90;;;11.70;99.90;;;;;;4913749;29;20044;-83
2023/10/21 18:20:34;;;;;;;9.93;3.42;;;11.70;99.90;;;;;;4898931;29;20044;-83
2023/10/21 18:23:00;;;;;;;10.13;2.72;;;11.80;99.90;;;;;;4925522;29;20039;-83
2023/10/21 18:25:26;;;;;;;7.40;2.67;;;11.70;99.90;;;;;;4901245;29;20044;-83
2023/10/21 18:27:54;;;;;;;12.35;3.20;;;11.80;99.90;;;;;;4913521;29;20079;-82
2023/10/21 18:30:21;;;;;;;9.02;2.50;;;11.70;99.90;;;;;;4912622;29;20520;-82
2023/10/21 18:32:46;;;;;;;8.98;2.47;;;11.70;99.90;;;;;;4932374;29;20438;-83
2023/10/21 18:35:12;;;;;;;10.35;2.10;;;11.80;99.90;;;;;;4932533;29;20049;-83
2023/10/21 18:37:38;;;;;;;6.75;2.60;;;11.70;99.90;;;;;;4916649;29;20513;-82
2023/10/21 18:40:04;;;;;;;13.05;2.97;;;11.70;99.90;;;;;;4902650;29;20040;-82
2023/10/21 18:42:30;;;;;;;9.48;2.13;;;11.80;99.90;;;;;;4922611;29;20131;-82
2023/10/21 18:44:56;;;;;;;9.45;2.42;;;11.80;99.90;;;;;;4932450;29;20138;-82
2023/10/21 18:47:22;;;;;;;8.25;2.10;;;11.80;99.90;;;;;;4932527;29;20075;-82
2023/10/21 18:49:47;;;;;;;8.88;2.50;;;11.80;99.90;;;;;;4924425;29;20561;-82